createdAt,value
2023-05-12T00:00:32.112Z,99.42
2023-05-12T00:01:33.004Z,99.52
2023-05-12T00:02:33.982Z,99.52
2023-05-12T00:03:34.715Z,99.63
2023-05-12T00:04:35.240Z,99.73
2023-05-12T00:05:36.131Z,99.63
2023-05-12T00:06:37.025Z,99.32
2023-05-12T00:07:37.919Z,99.32
2023-05-12T00:08:38.786Z,99.22
2023-05-12T00:09:39.691Z,98.50
2023-05-12T00:10:40.601Z,97.60
2023-05-12T00:11:41.488Z,97.84
2023-05-12T00:12:42.391Z,97.53
2023-05-12T00:13:43.426Z,97.23
2023-05-12T00:14:43.900Z,97.13
2023-05-12T00:15:44.793Z,97.44
2023-05-12T00:16:45.720Z,97.64
2023-05-12T00:17:46.634Z,97.99
2023-05-12T00:18:47.604Z,97.99
2023-05-12T00:19:48.491Z,98.50
2023-05-12T00:20:49.429Z,98.19
2023-05-12T00:21:50.372Z,97.99
2023-05-12T00:22:51.256Z,97.99
2023-05-12T00:23:52.197Z,97.89
2023-05-12T00:24:53.104Z,98.60
2023-05-12T00:25:54.010Z,98.70
2023-05-12T00:26:54.885Z,98.09
2023-05-12T00:27:55.787Z,99.62
2023-05-12T00:28:56.703Z,99.99
2023-05-12T00:29:57.597Z,99.99
2023-05-12T00:30:58.479Z,99.99
2023-05-12T00:31:59.431Z,99.99
2023-05-12T00:33:00.382Z,99.99
2023-05-12T00:34:00.837Z,99.99
2023-05-12T00:35:01.722Z,99.99
2023-05-12T00:36:02.612Z,99.99
2023-05-12T00:37:03.508Z,99.99
2023-05-12T00:38:04.400Z,99.99
2023-05-12T00:39:05.373Z,99.99
2023-05-12T00:40:06.309Z,99.99
2023-05-12T00:41:07.208Z,99.99
2023-05-12T00:42:08.169Z,99.99
2023-05-12T00:43:09.085Z,99.99
2023-05-12T00:44:09.976Z,99.99
2023-05-12T00:45:10.879Z,99.99
2023-05-12T00:46:11.814Z,99.99
2023-05-12T00:47:12.711Z,99.99
2023-05-12T00:48:13.610Z,99.99
2023-05-12T00:49:14.496Z,99.99
2023-05-12T00:50:15.389Z,99.99
2023-05-12T00:51:16.275Z,99.99
2023-05-12T00:52:17.328Z,99.99
2023-05-12T00:53:17.721Z,99.99
2023-05-12T00:54:18.605Z,99.99
2023-05-12T00:55:19.495Z,99.99
2023-05-12T00:56:20.430Z,99.99
2023-05-12T00:57:21.318Z,99.99
2023-05-12T00:58:22.193Z,99.99
2023-05-12T00:59:23.105Z,99.99
2023-05-12T01:00:23.990Z,99.99
2023-05-12T01:01:24.924Z,99.99
2023-05-12T01:02:25.873Z,99.99
2023-05-12T01:03:26.789Z,99.99
2023-05-12T01:04:27.646Z,99.99
2023-05-12T01:05:28.602Z,99.99
2023-05-12T01:06:29.496Z,99.99
2023-05-12T01:07:30.396Z,99.99
2023-05-12T01:08:31.275Z,99.99
2023-05-12T01:09:32.162Z,99.99
2023-05-12T01:10:33.068Z,99.99
2023-05-12T01:11:33.986Z,99.99
2023-05-12T01:12:34.865Z,99.99
2023-05-12T01:13:35.754Z,99.99
2023-05-12T01:14:36.989Z,99.99
2023-05-12T01:15:37.456Z,99.99
2023-05-12T01:16:38.309Z,99.99
2023-05-12T01:17:39.470Z,99.99
2023-05-12T01:18:40.030Z,99.99
2023-05-12T01:19:40.910Z,99.99
2023-05-12T01:20:41.808Z,99.99
2023-05-12T01:21:42.686Z,99.99
2023-05-12T01:22:43.615Z,99.99
2023-05-12T01:23:44.490Z,99.99
2023-05-12T01:24:45.414Z,99.99
2023-05-12T01:25:46.310Z,99.99
2023-05-12T01:26:47.209Z,99.99
2023-05-12T01:27:48.104Z,99.99
2023-05-12T01:28:49.017Z,99.99
2023-05-12T01:29:49.929Z,99.99
2023-05-12T01:30:50.856Z,99.99
2023-05-12T01:31:51.747Z,99.99
2023-05-12T01:32:52.665Z,99.99
2023-05-12T01:33:53.554Z,99.99
2023-05-12T01:34:54.455Z,99.99
2023-05-12T01:35:55.352Z,99.99
2023-05-12T01:36:56.225Z,99.99
2023-05-12T01:37:57.186Z,99.99
2023-05-12T01:38:58.077Z,99.99
2023-05-12T01:39:58.964Z,99.99
2023-05-12T01:40:59.838Z,99.99
2023-05-12T01:42:00.720Z,99.99
2023-05-12T01:43:01.629Z,99.99
2023-05-12T01:44:02.517Z,99.99
2023-05-12T01:45:03.417Z,99.99
2023-05-12T01:46:04.358Z,99.99
2023-05-12T01:47:05.242Z,99.99
2023-05-12T01:48:06.184Z,99.99
2023-05-12T01:49:07.041Z,99.99
2023-05-12T01:50:07.766Z,99.99
2023-05-12T01:51:08.727Z,99.99
2023-05-12T01:52:09.622Z,99.99
2023-05-12T01:53:10.553Z,99.99
2023-05-12T01:54:11.417Z,99.99
2023-05-12T01:55:12.307Z,99.99
2023-05-12T01:56:13.200Z,99.99
2023-05-12T01:57:14.106Z,99.99
2023-05-12T01:58:15.006Z,99.99
2023-05-12T01:59:15.892Z,99.99
2023-05-12T02:00:16.819Z,99.99
2023-05-12T02:01:17.751Z,99.99
2023-05-12T02:02:18.645Z,99.99
2023-05-12T02:03:19.677Z,99.99
2023-05-12T02:04:20.088Z,99.99
2023-05-12T02:05:20.965Z,99.51
2023-05-12T02:06:21.882Z,99.20
2023-05-12T02:07:22.753Z,99.51
2023-05-12T02:08:23.679Z,99.61
2023-05-12T02:09:24.551Z,99.61
2023-05-12T02:10:25.446Z,99.99
2023-05-12T02:11:26.350Z,99.91
2023-05-12T02:12:27.232Z,99.91
2023-05-12T02:13:28.119Z,99.76
2023-05-12T02:14:29.017Z,99.76
2023-05-12T02:15:29.925Z,99.86
2023-05-12T02:16:30.863Z,99.15
2023-05-12T02:17:31.739Z,99.96
2023-05-12T02:18:32.713Z,99.99
2023-05-12T02:19:33.556Z,99.76
2023-05-12T02:20:34.459Z,99.55
2023-05-12T02:21:35.349Z,99.76
2023-05-12T02:22:36.265Z,99.96
2023-05-12T02:23:37.293Z,99.86
2023-05-12T02:24:37.693Z,99.86
2023-05-12T02:25:38.632Z,99.15
2023-05-12T02:26:39.513Z,98.84
2023-05-12T02:27:40.409Z,99.45
2023-05-12T02:28:41.295Z,99.04
2023-05-12T02:29:42.215Z,99.35
2023-05-12T02:30:43.086Z,99.25
2023-05-12T02:31:43.992Z,99.66
2023-05-12T02:32:44.921Z,99.96
2023-05-12T02:33:45.817Z,99.35
2023-05-12T02:34:46.747Z,98.74
2023-05-12T02:35:47.609Z,97.92
2023-05-12T02:36:48.490Z,98.64
2023-05-12T02:37:49.380Z,98.84
2023-05-12T02:38:50.347Z,99.35
2023-05-12T02:39:51.215Z,99.76
2023-05-12T02:40:52.121Z,99.45
2023-05-12T02:41:53.027Z,99.15
2023-05-12T02:42:53.913Z,99.25
2023-05-12T02:43:54.821Z,99.66
2023-05-12T02:44:55.726Z,99.45
2023-05-12T02:45:56.625Z,99.04
2023-05-12T02:46:57.508Z,98.84
2023-05-12T02:47:58.459Z,98.84
2023-05-12T02:48:59.378Z,99.04
2023-05-12T02:50:00.287Z,98.94
2023-05-12T02:51:01.148Z,98.84
2023-05-12T02:52:02.048Z,98.13
2023-05-12T02:53:02.962Z,97.21
2023-05-12T02:54:03.854Z,97.31
2023-05-12T02:55:04.724Z,97.41
2023-05-12T02:56:05.625Z,96.64
2023-05-12T02:57:06.520Z,96.54
2023-05-12T02:58:07.421Z,97.16
2023-05-12T02:59:08.318Z,97.66
2023-05-12T03:00:09.212Z,97.66
2023-05-12T03:01:11.562Z,97.66
2023-05-12T03:02:10.893Z,97.66
2023-05-12T03:03:11.418Z,97.56
2023-05-12T03:04:11.830Z,98.43
2023-05-12T03:05:12.718Z,98.73
2023-05-12T03:06:13.765Z,99.04
2023-05-12T03:07:14.170Z,98.93
2023-05-12T03:08:15.063Z,98.73
2023-05-12T03:09:15.973Z,98.02
2023-05-12T03:10:16.976Z,98.22
2023-05-12T03:11:17.403Z,98.52
2023-05-12T03:12:18.305Z,98.11
2023-05-12T03:13:19.226Z,97.91
2023-05-12T03:14:20.103Z,97.61
2023-05-12T03:15:21.000Z,97.61
2023-05-12T03:16:21.930Z,97.20
2023-05-12T03:17:22.932Z,97.20
2023-05-12T03:18:23.385Z,97.20
2023-05-12T03:19:24.253Z,97.91
2023-05-12T03:20:25.131Z,97.91
2023-05-12T03:21:26.045Z,98.43
2023-05-12T03:22:26.949Z,98.43
2023-05-12T03:23:27.831Z,98.32
2023-05-12T03:24:28.754Z,98.02
2023-05-12T03:25:29.640Z,97.71
2023-05-12T03:26:30.555Z,97.81
2023-05-12T03:27:31.435Z,97.50
2023-05-12T03:28:32.340Z,97.40
2023-05-12T03:29:33.205Z,97.30
2023-05-12T03:30:34.151Z,97.71
2023-05-12T03:31:35.051Z,97.50
2023-05-12T03:32:35.938Z,97.50
2023-05-12T03:33:36.802Z,97.50
2023-05-12T03:34:37.731Z,97.50
2023-05-12T03:35:38.679Z,97.61
2023-05-12T03:36:39.535Z,97.71
2023-05-12T03:37:40.458Z,97.50
2023-05-12T03:38:41.373Z,97.40
2023-05-12T03:39:42.262Z,97.30
2023-05-12T03:40:43.147Z,97.00
2023-05-12T03:41:44.032Z,97.50
2023-05-12T03:42:44.988Z,97.91
2023-05-12T03:43:45.842Z,97.77
2023-05-12T03:44:46.731Z,97.46
2023-05-12T03:45:47.626Z,97.16
2023-05-12T03:46:56.197Z,96.54
2023-05-12T03:47:49.286Z,96.34
2023-05-12T03:48:50.054Z,96.44
2023-05-12T03:49:50.941Z,96.64
2023-05-12T03:50:51.824Z,96.64
2023-05-12T03:51:52.697Z,96.64
2023-05-12T03:52:53.581Z,96.84
2023-05-12T03:53:54.500Z,96.84
2023-05-12T03:54:55.416Z,96.64
2023-05-12T03:55:56.274Z,96.75
2023-05-12T03:56:57.160Z,96.84
2023-05-12T03:57:58.068Z,97.36
2023-05-12T03:58:58.996Z,97.25
2023-05-12T03:59:59.979Z,97.46
2023-05-12T04:01:07.912Z,97.36
2023-05-12T04:02:01.334Z,97.46
2023-05-12T04:03:02.307Z,97.16
2023-05-12T04:04:02.807Z,97.56
2023-05-12T04:05:03.686Z,97.56
2023-05-12T04:06:04.566Z,97.56
2023-05-12T04:07:05.490Z,97.56
2023-05-12T04:08:06.411Z,97.46
2023-05-12T04:09:07.269Z,97.56
2023-05-12T04:10:08.248Z,97.77
2023-05-12T04:11:09.070Z,97.66
2023-05-12T04:12:10.002Z,97.77
2023-05-12T04:13:10.887Z,97.77
2023-05-12T04:14:11.778Z,97.66
2023-05-12T04:15:12.649Z,97.46
2023-05-12T04:16:13.632Z,97.25
2023-05-12T04:17:14.522Z,97.36
2023-05-12T04:18:15.413Z,97.21
2023-05-12T04:19:16.290Z,97.21
2023-05-12T04:20:17.237Z,96.91
2023-05-12T04:21:17.715Z,96.80
2023-05-12T04:22:18.603Z,96.80
2023-05-12T04:23:19.585Z,97.00
2023-05-12T04:24:20.437Z,97.00
2023-05-12T04:25:21.350Z,96.80
2023-05-12T04:26:22.264Z,97.21
2023-05-12T04:27:23.138Z,97.00
2023-05-12T04:28:24.033Z,97.11
2023-05-12T04:29:24.932Z,96.96
2023-05-12T04:30:25.857Z,96.86
2023-05-12T04:31:26.780Z,96.96
2023-05-12T04:32:27.659Z,97.06
2023-05-12T04:33:28.539Z,96.66
2023-05-12T04:34:29.438Z,96.55
2023-05-12T04:35:30.343Z,96.66
2023-05-12T04:36:31.220Z,96.66
2023-05-12T04:37:32.119Z,96.96
2023-05-12T04:38:33.019Z,96.96
2023-05-12T04:39:33.903Z,97.06
2023-05-12T04:40:35.200Z,97.06
2023-05-12T04:41:35.633Z,96.71
2023-05-12T04:42:36.558Z,96.61
2023-05-12T04:44:38.310Z,96.92
2023-05-12T04:45:39.218Z,96.81
2023-05-12T04:46:40.182Z,96.51
2023-05-12T04:47:40.624Z,96.92
2023-05-12T04:48:41.488Z,96.71
2023-05-12T04:49:42.414Z,96.26
2023-05-12T04:50:43.327Z,96.15
2023-05-12T04:51:44.222Z,96.36
2023-05-12T04:52:45.106Z,96.67
2023-05-12T04:53:46.009Z,96.56
2023-05-12T04:54:46.911Z,96.36
2023-05-12T04:55:47.820Z,96.06
2023-05-12T04:56:48.691Z,96.52
2023-05-12T04:57:49.593Z,96.42
2023-05-12T04:58:50.497Z,96.22
2023-05-12T04:59:51.394Z,96.01
2023-05-12T05:00:52.314Z,95.91
2023-05-12T05:01:53.238Z,96.01
2023-05-12T05:02:54.304Z,96.22
2023-05-12T05:03:54.936Z,96.31
2023-05-12T05:04:55.362Z,96.52
2023-05-12T05:05:56.260Z,96.52
2023-05-12T05:06:57.148Z,96.52
2023-05-12T05:07:58.051Z,96.37
2023-05-12T05:08:58.949Z,96.47
2023-05-12T05:09:59.889Z,96.37
2023-05-12T05:11:00.776Z,96.17
2023-05-12T05:12:01.637Z,95.97
2023-05-12T05:13:02.545Z,95.86
2023-05-12T05:14:03.426Z,95.97
2023-05-12T05:15:04.314Z,95.56
2023-05-12T05:16:05.282Z,95.25
2023-05-12T05:17:06.245Z,95.56
2023-05-12T05:18:06.794Z,95.56
2023-05-12T05:19:19.519Z,95.46
2023-05-12T05:20:11.624Z,95.51
2023-05-12T05:21:09.522Z,95.72
2023-05-12T05:22:10.054Z,95.62
2023-05-12T05:23:10.481Z,95.62
2023-05-12T05:24:11.368Z,95.31
2023-05-12T05:25:12.253Z,95.21
2023-05-12T05:26:13.221Z,94.80
2023-05-12T05:27:14.146Z,94.80
2023-05-12T05:28:14.998Z,95.41
2023-05-12T05:29:15.887Z,95.92
2023-05-12T05:30:16.790Z,95.62
2023-05-12T05:31:17.698Z,95.92
2023-05-12T05:32:18.580Z,95.92
2023-05-12T05:33:19.468Z,95.72
2023-05-12T05:34:20.410Z,95.62
2023-05-12T05:35:21.539Z,95.62
2023-05-12T05:36:22.069Z,95.41
2023-05-12T05:37:22.985Z,95.82
2023-05-12T05:38:23.865Z,96.53
2023-05-12T05:39:24.752Z,96.43
2023-05-12T05:40:25.640Z,96.02
2023-05-12T05:41:26.604Z,96.33
2023-05-12T05:42:27.450Z,97.04
2023-05-12T05:43:28.323Z,96.63
2023-05-12T05:44:29.205Z,94.70
2023-05-12T05:45:30.092Z,96.02
2023-05-12T05:46:31.056Z,95.62
2023-05-12T05:47:31.989Z,95.72
2023-05-12T05:48:32.877Z,95.72
2023-05-12T05:49:33.766Z,95.62
2023-05-12T05:50:34.670Z,95.21
2023-05-12T05:51:35.607Z,95.01
2023-05-12T05:52:36.479Z,95.21
2023-05-12T05:53:37.366Z,95.41
2023-05-12T05:54:38.297Z,94.50
2023-05-12T05:55:39.194Z,95.10
2023-05-12T05:56:40.110Z,95.21
2023-05-12T05:57:40.970Z,95.72
2023-05-12T05:58:41.852Z,94.70
2023-05-12T05:59:42.758Z,94.60
2023-05-12T06:00:43.651Z,94.60
2023-05-12T06:01:44.542Z,93.89
2023-05-12T06:02:45.491Z,95.10
2023-05-12T06:03:46.442Z,94.60
2023-05-12T06:04:47.349Z,94.20
2023-05-12T06:05:48.264Z,93.79
2023-05-12T06:06:49.141Z,94.80
2023-05-12T06:07:50.032Z,94.40
2023-05-12T06:08:50.912Z,93.99
2023-05-12T06:09:51.825Z,93.79
2023-05-12T06:10:52.708Z,93.48
2023-05-12T06:11:53.613Z,93.18
2023-05-12T06:12:54.475Z,93.48
2023-05-12T06:13:55.381Z,94.29
2023-05-12T06:14:56.297Z,94.66
2023-05-12T06:15:57.174Z,94.25
2023-05-12T06:16:58.096Z,93.95
2023-05-12T06:17:59.040Z,92.42
2023-05-12T06:18:59.997Z,93.54
2023-05-12T06:20:00.859Z,93.13
2023-05-12T06:21:01.760Z,92.93
2023-05-12T06:22:02.631Z,93.74
2023-05-12T06:23:03.514Z,92.22
2023-05-12T06:24:04.439Z,92.42
2023-05-12T06:25:05.305Z,92.72
2023-05-12T06:26:06.190Z,92.72
2023-05-12T06:27:07.111Z,92.72
2023-05-12T06:28:07.989Z,93.03
2023-05-12T06:29:08.892Z,92.83
2023-05-12T06:30:09.788Z,92.79
2023-05-12T06:31:10.665Z,91.87
2023-05-12T06:32:11.656Z,92.58
2023-05-12T06:33:12.072Z,91.87
2023-05-12T06:34:12.956Z,91.87
2023-05-12T06:35:13.839Z,92.58
2023-05-12T06:36:14.766Z,92.99
2023-05-12T06:37:15.699Z,91.87
2023-05-12T06:38:16.604Z,92.79
2023-05-12T06:39:17.487Z,92.28
2023-05-12T06:40:18.376Z,91.67
2023-05-12T06:41:19.257Z,91.16
2023-05-12T06:42:20.203Z,91.16
2023-05-12T06:43:21.051Z,90.66
2023-05-12T06:44:21.933Z,91.56
2023-05-12T06:45:22.972Z,91.32
2023-05-12T06:46:23.435Z,90.81
2023-05-12T06:47:24.321Z,90.20
2023-05-12T06:48:25.189Z,90.51
2023-05-12T06:49:26.081Z,91.32
2023-05-12T06:50:27.020Z,91.42
2023-05-12T06:51:27.938Z,89.70
2023-05-12T06:52:28.836Z,90.00
2023-05-12T06:53:29.732Z,90.51
2023-05-12T06:54:30.615Z,91.73
2023-05-12T06:55:31.497Z,89.35
2023-05-12T06:56:32.404Z,88.95
2023-05-12T06:57:33.426Z,89.86
2023-05-12T06:58:34.274Z,90.67
2023-05-12T06:59:35.155Z,88.84
2023-05-12T07:00:36.079Z,88.64
2023-05-12T07:01:37.010Z,89.96
2023-05-12T07:02:37.912Z,88.23
2023-05-12T07:03:38.904Z,88.64
2023-05-12T07:04:39.287Z,89.15
2023-05-12T07:05:40.221Z,88.84
2023-05-12T07:06:41.094Z,87.32
2023-05-12T07:07:41.978Z,87.83
2023-05-12T07:08:42.854Z,87.93
2023-05-12T07:09:43.745Z,89.51
2023-05-12T07:10:44.642Z,88.49
2023-05-12T07:11:45.552Z,88.80
2023-05-12T07:12:46.433Z,88.40
2023-05-12T07:13:47.302Z,90.83
2023-05-12T07:14:48.207Z,90.08
2023-05-12T07:15:49.162Z,86.43
2023-05-12T07:16:50.012Z,87.95
2023-05-12T07:17:50.923Z,88.66
2023-05-12T07:18:51.841Z,90.48
2023-05-12T07:19:52.768Z,87.24
2023-05-12T07:20:53.744Z,86.39
2023-05-12T07:21:54.154Z,87.81
2023-05-12T07:22:55.029Z,88.11
2023-05-12T07:23:55.933Z,87.51
2023-05-12T07:24:56.936Z,86.19
2023-05-12T07:25:57.344Z,86.59
2023-05-12T07:26:58.229Z,86.90
2023-05-12T07:27:59.149Z,86.69
2023-05-12T07:29:00.034Z,85.33
2023-05-12T07:30:00.918Z,85.88
2023-05-12T07:31:01.839Z,85.38
2023-05-12T07:32:02.689Z,84.93
2023-05-12T07:33:03.634Z,87.46
2023-05-12T07:34:04.535Z,87.56
2023-05-12T07:35:05.418Z,86.05
2023-05-12T07:36:06.299Z,87.46
2023-05-12T07:37:07.201Z,85.44
2023-05-12T07:38:08.103Z,84.93
2023-05-12T07:39:09.015Z,85.84
2023-05-12T07:40:09.911Z,85.10
2023-05-12T07:41:10.780Z,83.68
2023-05-12T07:42:11.665Z,82.50
2023-05-12T07:43:12.604Z,84.73
2023-05-12T07:44:13.470Z,83.51
2023-05-12T07:45:14.369Z,85.39
2023-05-12T07:46:15.243Z,83.68
2023-05-12T07:47:16.197Z,83.17
2023-05-12T07:48:17.069Z,83.47
2023-05-12T07:49:17.963Z,82.76
2023-05-12T07:50:18.831Z,84.19
2023-05-12T07:51:19.720Z,82.76
2023-05-12T07:52:20.626Z,84.99
2023-05-12T07:53:21.520Z,81.92
2023-05-12T07:54:22.413Z,85.36
2023-05-12T07:55:23.457Z,83.84
2023-05-12T07:56:23.933Z,82.12
2023-05-12T07:57:24.842Z,81.82
2023-05-12T07:58:26.073Z,83.80
2023-05-12T07:59:26.415Z,81.27
2023-05-12T08:00:27.303Z,81.88
2023-05-12T08:01:28.218Z,80.16
2023-05-12T08:02:29.154Z,81.57
2023-05-12T08:03:30.078Z,79.46
2023-05-12T08:04:31.038Z,81.94
2023-05-12T08:05:31.883Z,82.14
2023-05-12T08:06:32.794Z,83.66
2023-05-12T08:07:33.713Z,79.62
2023-05-12T08:08:34.634Z,79.79
2023-05-12T08:09:35.504Z,79.38
2023-05-12T08:10:36.406Z,78.47
2023-05-12T08:11:37.308Z,81.40
2023-05-12T08:12:38.192Z,80.29
2023-05-12T08:13:39.127Z,78.67
2023-05-12T08:14:39.980Z,79.79
2023-05-12T08:15:40.891Z,77.86
2023-05-12T08:16:41.797Z,77.56
2023-05-12T08:17:42.660Z,77.26
2023-05-12T08:18:43.550Z,76.95
2023-05-12T08:19:44.432Z,79.38
2023-05-12T08:20:45.333Z,78.84
2023-05-12T08:21:46.213Z,82.87
2023-05-12T08:22:47.105Z,76.31
2023-05-12T08:23:47.991Z,77.49
2023-05-12T08:24:48.894Z,79.10
2023-05-12T08:25:49.807Z,74.05
2023-05-12T08:26:50.696Z,77.08
2023-05-12T08:27:52.486Z,75.57
2023-05-12T08:28:52.521Z,75.98
2023-05-12T08:29:52.901Z,75.54
2023-05-12T08:30:53.805Z,74.96
2023-05-12T08:31:54.695Z,76.78
2023-05-12T08:32:55.579Z,72.64
2023-05-12T08:34:08.953Z,73.96
2023-05-12T08:34:58.259Z,73.35
2023-05-12T08:35:58.142Z,78.26
2023-05-12T08:36:59.024Z,73.92
2023-05-12T08:37:59.926Z,72.31
2023-05-12T08:39:00.815Z,72.31
2023-05-12T08:40:01.696Z,74.22
2023-05-12T08:41:02.591Z,74.02
2023-05-12T08:42:03.479Z,72.07
2023-05-12T08:43:04.388Z,77.62
2023-05-12T08:44:05.494Z,72.58
2023-05-12T08:45:05.826Z,73.88
2023-05-12T08:46:06.720Z,74.35
2023-05-12T08:47:07.601Z,69.35
2023-05-12T08:48:08.518Z,68.95
2023-05-12T08:49:09.389Z,69.85
2023-05-12T08:50:10.284Z,70.66
2023-05-12T08:51:11.154Z,73.14
2023-05-12T08:52:12.039Z,72.44
2023-05-12T08:53:12.945Z,70.93
2023-05-12T08:54:13.826Z,70.32
2023-05-12T08:55:14.716Z,70.29
2023-05-12T08:57:16.559Z,71.10
2023-05-12T08:58:17.049Z,72.37
2023-05-12T08:59:17.998Z,69.09
2023-05-12T09:00:19.083Z,70.19
2023-05-12T09:01:19.668Z,69.09
2023-05-12T09:02:20.705Z,68.48
2023-05-12T09:03:21.626Z,69.59
2023-05-12T09:04:22.576Z,68.95
2023-05-12T09:05:23.591Z,70.16
2023-05-12T09:06:24.094Z,69.82
2023-05-12T09:07:25.007Z,73.44
2023-05-12T09:08:25.899Z,69.29
2023-05-12T09:09:27.503Z,69.79
2023-05-12T09:10:35.074Z,67.78
2023-05-12T09:11:29.176Z,67.85
2023-05-12T09:12:29.053Z,67.14
2023-05-12T09:13:29.936Z,66.94
2023-05-12T09:14:30.994Z,68.75
2023-05-12T09:15:31.324Z,66.03
2023-05-12T09:16:32.375Z,68.15
2023-05-12T09:17:32.778Z,65.64
2023-05-12T09:18:33.695Z,68.72
2023-05-12T09:19:34.545Z,68.62
2023-05-12T09:20:35.477Z,64.40
2023-05-12T09:21:36.360Z,65.23
2023-05-12T09:22:37.251Z,66.44
2023-05-12T09:23:38.134Z,64.00
2023-05-12T09:24:39.036Z,64.07
2023-05-12T09:25:39.924Z,62.46
2023-05-12T09:26:40.816Z,65.67
2023-05-12T09:27:41.693Z,67.05
2023-05-12T09:28:42.581Z,70.93
2023-05-12T09:29:51.763Z,67.72
2023-05-12T09:30:45.312Z,62.80
2023-05-12T09:31:45.217Z,62.90
2023-05-12T09:32:46.074Z,63.60
2023-05-12T09:33:47.051Z,64.78
2023-05-12T09:34:56.525Z,62.94
2023-05-12T09:35:48.890Z,63.75
2023-05-12T09:36:49.791Z,62.24
2023-05-12T09:37:50.677Z,65.05
2023-05-12T09:38:51.569Z,63.01
2023-05-12T09:39:52.565Z,61.71
2023-05-12T09:40:53.415Z,62.98
2023-05-12T09:41:54.296Z,61.25
2023-05-12T09:42:55.178Z,62.35
2023-05-12T09:43:56.089Z,63.45
2023-05-12T09:44:57.041Z,61.25
2023-05-12T09:45:57.930Z,62.52
2023-05-12T09:46:58.796Z,61.42
2023-05-12T09:47:59.755Z,62.62
2023-05-12T09:49:09.606Z,60.62
2023-05-12T09:50:01.532Z,62.12
2023-05-12T09:51:02.405Z,60.62
2023-05-12T09:52:03.295Z,64.06
2023-05-12T09:53:04.182Z,62.86
2023-05-12T09:54:07.152Z,59.04
2023-05-12T09:55:05.707Z,61.36
2023-05-12T09:56:06.595Z,59.97
2023-05-12T09:57:07.488Z,58.37
2023-05-12T09:58:08.395Z,61.16
2023-05-12T09:59:09.291Z,63.76
2023-05-12T10:00:20.218Z,65.03
2023-05-12T10:09:58.068Z,61.30
2023-05-12T10:10:56.961Z,64.07
2023-05-12T10:11:57.853Z,58.91
2023-05-12T10:12:59.506Z,60.00
2023-05-12T10:13:59.448Z,60.31
2023-05-12T10:14:59.912Z,63.17
2023-05-12T10:16:00.888Z,64.70
2023-05-12T10:17:01.777Z,62.90
2023-05-12T10:18:02.693Z,63.20
2023-05-12T10:19:03.585Z,61.38
2023-05-12T10:20:04.442Z,60.97
2023-05-12T10:21:05.325Z,65.17
2023-05-12T10:22:06.238Z,63.97
2023-05-12T10:23:07.125Z,59.88
2023-05-12T10:24:08.015Z,61.25
2023-05-12T10:25:08.945Z,60.05
2023-05-12T10:26:09.852Z,61.61
2023-05-12T10:27:10.795Z,63.38
2023-05-12T10:28:11.705Z,62.08
2023-05-12T10:29:12.699Z,56.63
2023-05-12T10:30:13.102Z,55.16
2023-05-12T10:31:14.130Z,58.75
2023-05-12T10:32:14.971Z,62.64
2023-05-12T10:33:15.891Z,57.26
2023-05-12T10:34:16.816Z,61.18
2023-05-12T10:35:17.754Z,63.97
2023-05-12T10:36:18.714Z,62.30
2023-05-12T10:37:19.599Z,60.71
2023-05-12T10:38:20.490Z,58.04
2023-05-12T10:39:21.380Z,57.87
2023-05-12T10:40:22.411Z,59.66
2023-05-12T10:41:22.846Z,57.07
2023-05-12T10:45:18.803Z,59.31
2023-05-12T10:46:26.986Z,59.21
2023-05-12T10:47:19.897Z,62.20
2023-05-12T10:48:20.388Z,64.37
2023-05-12T10:49:20.883Z,58.15
2023-05-12T10:50:21.786Z,60.55
2023-05-12T10:51:22.679Z,64.21
2023-05-12T10:52:23.552Z,57.03
2023-05-12T10:53:24.450Z,59.55
2023-05-12T10:54:34.303Z,61.85
2023-05-12T10:55:26.481Z,58.62
2023-05-12T10:56:27.148Z,57.43
2023-05-12T10:57:27.939Z,60.02
2023-05-12T10:58:29.083Z,60.59
2023-05-12T10:59:29.645Z,63.55
2023-05-12T11:00:30.427Z,60.43
2023-05-12T11:01:30.803Z,57.92
2023-05-12T11:02:32.546Z,58.58
2023-05-12T11:03:33.362Z,57.19
2023-05-12T11:04:33.886Z,53.28
2023-05-12T11:05:33.920Z,55.08
2023-05-12T11:06:34.551Z,55.85
2023-05-12T11:07:35.543Z,57.24
2023-05-12T11:08:35.982Z,53.46
2023-05-12T11:09:40.243Z,51.37
2023-05-12T11:10:39.000Z,54.25
2023-05-12T11:11:38.420Z,56.74
2023-05-12T11:12:38.876Z,54.68
2023-05-12T11:13:39.825Z,55.57
2023-05-12T11:14:40.718Z,58.48
2023-05-12T11:15:41.600Z,54.80
2023-05-12T11:16:42.684Z,53.31
2023-05-12T11:17:43.148Z,57.99
2023-05-12T11:18:44.071Z,53.11
2023-05-12T11:19:44.950Z,55.27
2023-05-12T11:20:45.836Z,54.48
2023-05-12T11:21:46.756Z,53.31
2023-05-12T11:22:47.654Z,53.14
2023-05-12T11:23:48.537Z,52.74
2023-05-12T11:24:49.452Z,49.98
2023-05-12T11:25:50.356Z,51.79
2023-05-12T11:26:51.217Z,52.02
2023-05-12T11:27:52.110Z,55.51
2023-05-12T11:28:52.989Z,52.02
2023-05-12T11:29:53.871Z,53.69
2023-05-12T11:30:55.656Z,51.70
2023-05-12T11:31:55.833Z,55.76
2023-05-12T11:32:56.745Z,54.16
2023-05-12T11:34:10.841Z,55.33
2023-05-12T11:34:59.402Z,59.88
2023-05-12T11:35:59.310Z,59.85
2023-05-12T11:37:00.218Z,56.96
2023-05-12T11:38:01.098Z,53.61
2023-05-12T11:39:01.976Z,55.40
2023-05-12T11:40:02.918Z,54.21
2023-05-12T11:41:03.834Z,54.03
2023-05-12T11:42:12.137Z,56.25
2023-05-12T11:43:06.473Z,56.95
2023-05-12T11:44:06.379Z,49.98
2023-05-12T11:45:07.346Z,48.19
2023-05-12T11:46:08.243Z,50.60
2023-05-12T11:47:09.257Z,50.70
2023-05-12T11:48:10.199Z,53.09
2023-05-12T11:49:11.240Z,49.63
2023-05-12T11:50:11.614Z,49.60
2023-05-12T11:51:12.501Z,47.33
2023-05-12T11:52:13.384Z,54.19
2023-05-12T11:53:14.285Z,53.36
2023-05-12T11:54:15.189Z,49.98
2023-05-12T11:55:16.198Z,50.27
2023-05-12T11:56:16.627Z,52.37
2023-05-12T11:57:17.503Z,49.98
2023-05-12T11:58:18.427Z,49.48
2023-05-12T11:59:19.401Z,48.11
2023-05-12T12:00:20.435Z,49.90
2023-05-12T12:01:20.835Z,48.91
2023-05-12T12:02:21.793Z,47.21
2023-05-12T12:03:22.799Z,49.21
2023-05-12T12:04:23.219Z,47.59
2023-05-12T12:05:24.115Z,49.68
2023-05-12T12:06:25.003Z,47.89
2023-05-12T12:07:25.890Z,49.70
2023-05-12T12:08:26.817Z,47.81
2023-05-12T12:09:27.728Z,49.70
2023-05-12T12:10:28.609Z,50.00
2023-05-12T12:11:29.496Z,55.55
2023-05-12T12:12:30.397Z,49.85
2023-05-12T12:13:31.330Z,51.12
2023-05-12T12:14:32.206Z,50.80
2023-05-12T12:15:33.098Z,46.45
2023-05-12T12:16:34.014Z,48.24
2023-05-12T12:17:34.912Z,42.09
2023-05-12T12:18:36.081Z,40.70
2023-05-12T12:19:36.527Z,42.41
2023-05-12T12:20:37.462Z,43.63
2023-05-12T12:21:38.421Z,44.82
2023-05-12T12:22:39.306Z,46.91
2023-05-12T12:23:50.350Z,47.39
2023-05-12T12:24:42.019Z,46.57
2023-05-12T12:25:41.925Z,48.24
2023-05-12T12:26:42.912Z,49.04
2023-05-12T12:27:43.804Z,46.35
2023-05-12T12:28:44.738Z,46.95
2023-05-12T12:29:45.630Z,49.13
2023-05-12T12:30:46.562Z,47.84
2023-05-12T12:31:47.425Z,45.67
2023-05-12T12:32:48.418Z,46.37
2023-05-12T12:33:48.990Z,45.55
2023-05-12T12:34:50.759Z,46.35
2023-05-12T12:35:50.644Z,49.51
2023-05-12T12:36:51.588Z,47.32
2023-05-12T12:37:52.495Z,43.35
2023-05-12T12:38:53.374Z,42.86
2023-05-12T12:39:54.260Z,45.45
2023-05-12T12:40:55.141Z,45.00
2023-05-12T12:41:56.054Z,49.60
2023-05-12T12:42:56.945Z,48.68
2023-05-12T12:43:57.844Z,48.38
2023-05-12T12:44:58.733Z,49.95
2023-05-12T12:45:59.609Z,49.46
2023-05-12T12:47:00.610Z,50.55
2023-05-12T12:48:01.500Z,49.85
2023-05-12T12:49:02.366Z,47.17
2023-05-12T12:50:03.261Z,46.59
2023-05-12T12:51:04.158Z,51.37
2023-05-12T12:52:05.083Z,49.66
2023-05-12T12:53:05.968Z,49.63
2023-05-12T12:54:06.860Z,44.36
2023-05-12T12:55:07.743Z,44.85
2023-05-12T12:56:08.677Z,46.45
2023-05-12T12:57:09.572Z,47.29
2023-05-12T12:58:10.460Z,44.40
2023-05-12T12:59:11.363Z,45.08
2023-05-12T13:00:12.252Z,44.08
2023-05-12T13:01:13.306Z,46.08
2023-05-12T13:02:13.843Z,47.11
2023-05-12T13:03:14.826Z,44.92
2023-05-12T13:04:15.187Z,46.04
2023-05-12T13:05:16.181Z,47.44
2023-05-12T13:06:16.881Z,48.75
2023-05-12T13:07:17.267Z,46.98
2023-05-12T13:08:18.149Z,50.10
2023-05-12T13:09:20.156Z,49.12
2023-05-12T13:10:19.708Z,47.90
2023-05-12T13:11:20.144Z,47.60
2023-05-12T13:12:21.064Z,47.98
2023-05-12T13:13:21.921Z,49.87
2023-05-12T13:14:22.820Z,46.61
2023-05-12T13:15:24.176Z,47.58
2023-05-12T13:16:24.260Z,46.06
2023-05-12T13:17:25.139Z,46.76